Řízení letového provozu České republiky  
Aktualizace dat:  29.07.2021 12:58:29 UTC English version
   METEO Zobrazení stránky:  29.07.2021 12:59:41 UTC  
vysvětlivky
METAR EDDB 291250Z 24017KT CAVOK 25/10 Q1010 TEMPO 24020G30KT=
METAR EDDC 291250Z 26010KT 210V330 CAVOK 24/11 Q1012 TEMPO 25015G25KT=
METAR EDDE 291250Z 26015KT CAVOK 22/12 Q1012 TEMPO 26015G25KT=
METAR EDDF 291250Z 23016G26KT CAVOK 22/09 Q1014 NOSIG=
METAR EDDM 291250Z 29008KT 230V320 9999 SCT047 25/14 Q1015 NOSIG=
METAR EDDN 291250Z 29013KT 9999 SCT045 23/11 Q1014 NOSIG=
METAR EDDP 291250Z 24019KT CAVOK 24/10 Q1011 TEMPO 23020G30KT=
METAR EDQM 291250Z 23013KT 200V260 9999 SCT045 19/09 Q1014=
METAR EPBY 291230Z 24019KT CAVOK 25/11 Q1009=
METAR EPGD 291230Z 23011KT 190V260 CAVOK 23/11 Q1008=
METAR EPKK 291230Z 25009KT 220V280 9999 FEW040 26/16 Q1013=
METAR EPKT 291230Z 22012KT 200V270 9999 FEW048 26/13 Q1013=
METAR EPLL 291230Z 24011KT 180V270 9999 SCT043 25/15 Q1012=
METAR EPPO 291230Z 24013KT CAVOK 26/10 Q1010=
METAR EPRZ 291230Z 27012KT 9999 SCT040 27/16 Q1013=
METAR EPWA 291230Z 25011KT 9999 BKN048 26/16 Q1011 NOSIG=
METAR EPWR 291230Z 26012KT CAVOK 26/11 Q1012=
METAR LHBP 291230Z 31012KT CAVOK 29/13 Q1014 NOSIG=
METAR LHSM 291215Z AUTO 09006KT 030V150 CAVOK 29/12 Q1014 NOSIG=
METAR LKBC 291300Z AUTO VRB12G29KT 9999 FEW056 24/11 Q1015=
METAR LKCV 291300Z 28011KT CAVOK 24/12 Q1013 NOSIG RMK BLU BLU=
METAR LKKB 291300Z 22012KT 190V260 CAVOK 24/11 Q1013 NOSIG RMK BLU BLU=
METAR LKKU NIL
METAR LKKV 291230Z 26009KT 230V300 9999 SCT048 21/10 Q1014 RMK REG QNH 1011=
METAR LKLN 291300Z AUTO 24013KT 210V270 9999 FEW061 25/12 Q1014=
METAR LKMT 291230Z 22009KT 9999 FEW046 25/16 Q1014 NOSIG RMK REG QNH 1011=
METAR LKNA 291300Z 27010KT 230V300 CAVOK 25/13 Q1015 NOSIG RMK BLU BLU=
METAR LKPD 291300Z 24009KT CAVOK 26/12 Q1013 NOSIG RMK BLU BLU=
METAR LKPJ 291230Z AUTO 27007KT 240V300 9999 SCT080/// 27/14 Q1014=
SPECI LKPR 291237Z 24012G22KT CAVOK 26/11 Q1014 RMK REG QNH 1011=
METAR LKTB 291230Z 28011KT 220V310 CAVOK 28/11 Q1014 NOSIG RMK REG QNH 1011=
METAR LKVO 291300Z 27010KT CAVOK 25/10 Q1013=
METAR LOWI 291250Z VRB03KT 9999 FEW070 25/15 Q1015 NOSIG=
METAR LOWL 291250Z 33005KT 280V010 9999 SCT042 25/15 Q1015 NOSIG=
METAR LOWS 291250Z VRB04KT 9999 FEW042 25/15 Q1015 NOSIG=
METAR LOWW 291250Z 03004KT 350V070 CAVOK 27/12 Q1014 NOSIG=
METAR LZIB 291230Z 31009KT 280V340 CAVOK 27/13 Q1015 NOSIG=
METAR LZKZ 291230Z 01005KT 330V050 CAVOK 27/18 Q1013 TEMPO SHRA=
METAR LZMC 291200Z 26004KT 9999 BKN048 28/14 Q1015=
METAR LZPP 291230Z VRB04KT 9999 FEW046 27/15 Q1014=
METAR LZSL 291200Z 34004KT 9999 FEW050 29/11 Q1014=
METAR LZTT 291230Z VRB03KT 9999 BKN030 23/17 Q1015 NOSIG=
METAR LZZI 291230Z 26008KT 230V290 9999 SCT057 27/12 Q1014=